Time;durP1;ratioP1;P1;durP2;ratioP2;P2;SDS_P1;SDS_P2;PMS_P1;PMS_P2;Temp;Humidity;BMP_temperature;BMP_pressure;BME280_temperature;BME280_humidity;BME280_pressure;Samples;Min_cycle;Max_cycle;Signal;HPM_P1;HPM_P2
2021/12/26 00:01:41;;;;;;;0.33;0.30;;;;;;;;;;1850424;77;26251;-50
2021/12/26 00:04:13;;;;;;;0.30;0.30;;;;;;;;;;1837123;77;26271;-48
2021/12/26 00:06:38;;;;;;;0.28;0.23;;;;;;;;;;1853460;77;26366;-48
2021/12/26 00:09:06;;;;;;;0.40;0.30;;;;;;;;;;1863712;77;26273;-48
2021/12/26 00:11:33;;;;;;;0.30;0.30;;;;;;;;;;1861750;77;26723;-46
2021/12/26 00:14:00;;;;;;;0.28;0.28;;;;;;;;;;1861470;77;26296;-47
2021/12/26 00:16:28;;;;;;;0.30;0.30;;;;;;;;;;1863854;77;26255;-45
2021/12/26 00:18:55;;;;;;;0.23;0.23;;;;;;;;;;1862735;77;26275;-45
2021/12/26 00:21:23;;;;;;;0.10;0.10;;;;;;;;;;1859336;77;26264;-46
2021/12/26 00:23:51;;;;;;;0.95;0.30;;;;;;;;;;1832318;78;26224;-46
2021/12/26 00:26:18;;;;;;;0.40;0.40;;;;;;;;;;1846087;77;26281;-46
2021/12/26 00:28:45;;;;;;;0.30;0.30;;;;;;;;;;1840845;77;26344;-47
2021/12/26 00:31:16;;;;;;;0.28;0.28;;;;;;;;;;1843891;77;26287;-46
2021/12/26 00:33:44;;;;;;;0.30;0.30;;;;;;;;;;1860363;77;26280;-50
2021/12/26 00:36:11;;;;;;;0.35;0.35;;;;;;;;;;1858762;77;26247;-45
2021/12/26 00:38:39;;;;;;;0.45;0.40;;;;;;;;;;1862114;77;26275;-48
2021/12/26 00:41:06;;;;;;;0.33;0.30;;;;;;;;;;1863536;77;26271;-46
2021/12/26 00:43:33;;;;;;;0.40;0.40;;;;;;;;;;1863599;77;26260;-46
2021/12/26 00:46:01;;;;;;;1.35;0.30;;;;;;;;;;1861386;77;26252;-45
2021/12/26 00:48:28;;;;;;;0.20;0.20;;;;;;;;;;1855450;76;26382;-46
2021/12/26 00:50:56;;;;;;;0.33;0.33;;;;;;;;;;1853043;77;25691;-46
2021/12/26 00:53:23;;;;;;;0.30;0.30;;;;;;;;;;1863299;77;26245;-48
2021/12/26 00:55:51;;;;;;;0.35;0.35;;;;;;;;;;1862730;77;25185;-46
2021/12/26 00:58:18;;;;;;;0.30;0.30;;;;;;;;;;1854644;77;26338;-46
2021/12/26 01:00:47;;;;;;;0.23;0.23;;;;;;;;;;1838711;77;26237;-46
2021/12/26 01:03:16;;;;;;;0.30;0.20;;;;;;;;;;1854261;76;26236;-46
2021/12/26 01:05:45;;;;;;;0.98;0.28;;;;;;;;;;1850255;77;27351;-51
2021/12/26 01:08:14;;;;;;;0.20;0.20;;;;;;;;;;1848720;77;26392;-46
2021/12/26 01:10:51;;;;;;;0.30;0.30;;;;;;;;;;1863155;77;26686;-46
2021/12/26 01:13:31;;;;;;;1.85;0.13;;;;;;;;;;1861799;76;25284;-47
2021/12/26 01:15:57;;;;;;;0.30;0.30;;;;;;;;;;1862828;76;26321;-46
2021/12/26 01:18:26;;;;;;;0.35;0.20;;;;;;;;;;1863187;77;26253;-47
2021/12/26 01:21:00;;;;;;;0.20;0.20;;;;;;;;;;1859576;76;26289;-46
2021/12/26 01:23:24;;;;;;;0.23;0.23;;;;;;;;;;1862028;76;26253;-47
2021/12/26 01:25:51;;;;;;;0.30;0.30;;;;;;;;;;1863033;77;26249;-49
2021/12/26 01:28:21;;;;;;;0.17;0.17;;;;;;;;;;1855081;77;25297;-47
2021/12/26 01:30:49;;;;;;;0.25;0.25;;;;;;;;;;1852281;76;26233;-48
2021/12/26 01:33:17;;;;;;;0.30;0.30;;;;;;;;;;1850746;76;26707;-51
2021/12/26 01:35:45;;;;;;;0.20;0.20;;;;;;;;;;1853494;76;26366;-49
2021/12/26 01:38:14;;;;;;;0.10;0.10;;;;;;;;;;1847012;76;27103;-50
2021/12/26 01:40:47;;;;;;;0.20;0.20;;;;;;;;;;1873661;76;26596;-46
2021/12/26 01:43:15;;;;;;;0.68;0.28;;;;;;;;;;1879866;76;26338;-46
2021/12/26 01:45:43;;;;;;;0.30;0.30;;;;;;;;;;1875661;76;26309;-47
2021/12/26 01:48:12;;;;;;;0.17;0.17;;;;;;;;;;1862674;75;26779;-47
2021/12/26 01:50:40;;;;;;;0.20;0.20;;;;;;;;;;1863116;77;26304;-48
2021/12/26 01:53:07;;;;;;;0.20;0.20;;;;;;;;;;1861979;77;26326;-49
2021/12/26 01:58:08;;;;;;;0.20;0.20;;;;;;;;;;1847920;76;26286;-46
2021/12/26 02:00:37;;;;;;;0.33;0.33;;;;;;;;;;1836269;77;26295;-46
2021/12/26 02:03:04;;;;;;;0.28;0.28;;;;;;;;;;1854133;76;26269;-48
2021/12/26 02:05:32;;;;;;;0.20;0.20;;;;;;;;;;1855273;77;26746;-46
2021/12/26 02:08:00;;;;;;;0.20;0.20;;;;;;;;;;1858337;77;26389;-46
2021/12/26 02:10:27;;;;;;;0.10;0.10;;;;;;;;;;1860924;77;26263;-50
2021/12/26 02:12:54;;;;;;;0.20;0.20;;;;;;;;;;1860896;77;26668;-47
2021/12/26 02:15:22;;;;;;;0.17;0.17;;;;;;;;;;1860034;77;26349;-46
2021/12/26 02:17:49;;;;;;;0.30;0.20;;;;;;;;;;1862998;77;26213;-50
2021/12/26 02:20:18;;;;;;;0.17;0.17;;;;;;;;;;1842533;77;27525;-48
2021/12/26 02:22:51;;;;;;;0.15;0.15;;;;;;;;;;1841476;77;26294;-48
2021/12/26 02:25:29;;;;;;;0.20;0.20;;;;;;;;;;1819554;78;26285;-48
2021/12/26 02:27:44;;;;;;;0.20;0.20;;;;;;;;;;1814225;78;26349;-46
2021/12/26 02:30:12;;;;;;;0.20;0.20;;;;;;;;;;1792625;79;26285;-51
2021/12/26 02:32:40;;;;;;;0.20;0.20;;;;;;;;;;1817321;79;26265;-50
2021/12/26 02:35:07;;;;;;;0.10;0.10;;;;;;;;;;1804272;78;26295;-49
2021/12/26 02:37:35;;;;;;;0.20;0.20;;;;;;;;;;1822053;78;25565;-46
2021/12/26 02:40:04;;;;;;;0.10;0.10;;;;;;;;;;1799134;79;26835;-50
2021/12/26 02:42:31;;;;;;;0.20;0.20;;;;;;;;;;1801300;79;26886;-49
2021/12/26 02:44:58;;;;;;;0.20;0.20;;;;;;;;;;1795381;80;26298;-48
2021/12/26 02:47:36;;;;;;;0.10;0.10;;;;;;;;;;1788955;79;26820;-46
2021/12/26 02:50:06;;;;;;;0.15;0.15;;;;;;;;;;1789128;78;26831;-48
2021/12/26 02:52:33;;;;;;;0.20;0.20;;;;;;;;;;1820491;77;26294;-47
2021/12/26 02:55:00;;;;;;;0.17;0.17;;;;;;;;;;1807281;79;26296;-47
2021/12/26 02:57:28;;;;;;;0.10;0.10;;;;;;;;;;1854479;76;26786;-46
2021/12/26 02:59:56;;;;;;;0.15;0.15;;;;;;;;;;1845407;77;26212;-45
2021/12/26 03:02:23;;;;;;;0.17;0.17;;;;;;;;;;1854141;76;26750;-48
2021/12/26 03:04:50;;;;;;;0.20;0.20;;;;;;;;;;1854846;77;26365;-47
2021/12/26 03:07:17;;;;;;;0.30;0.30;;;;;;;;;;1827673;77;26249;-48
2021/12/26 03:09:47;;;;;;;0.10;0.10;;;;;;;;;;1864793;76;26299;-47
2021/12/26 03:12:14;;;;;;;0.10;0.10;;;;;;;;;;1855459;77;26380;-47
2021/12/26 03:14:42;;;;;;;0.10;0.10;;;;;;;;;;1855689;77;26774;-46
2021/12/26 03:17:09;;;;;;;0.10;0.10;;;;;;;;;;1855562;76;26270;-46
2021/12/26 03:19:37;;;;;;;0.10;0.10;;;;;;;;;;1856626;76;26266;-47
2021/12/26 03:22:05;;;;;;;0.20;0.20;;;;;;;;;;1860239;76;26279;-49
2021/12/26 03:24:34;;;;;;;0.10;0.10;;;;;;;;;;1841747;78;26315;-48
2021/12/26 03:27:03;;;;;;;0.20;0.20;;;;;;;;;;1852133;77;26287;-48
2021/12/26 03:29:31;;;;;;;0.55;0.30;;;;;;;;;;1854302;76;26725;-50
2021/12/26 03:31:58;;;;;;;0.10;0.10;;;;;;;;;;1852342;76;26232;-47
2021/12/26 03:34:25;;;;;;;0.10;0.10;;;;;;;;;;1829121;78;25204;-46
2021/12/26 03:36:56;;;;;;;0.28;0.28;;;;;;;;;;1836497;77;26691;-46
2021/12/26 03:39:22;;;;;;;0.10;0.10;;;;;;;;;;1827843;77;26783;-46
2021/12/26 03:41:50;;;;;;;0.20;0.20;;;;;;;;;;1827925;77;26278;-47
2021/12/26 03:44:18;;;;;;;0.10;0.10;;;;;;;;;;1828141;78;26427;-47
2021/12/26 03:46:45;;;;;;;0.10;0.10;;;;;;;;;;1828387;77;25815;-46
2021/12/26 03:49:12;;;;;;;0.20;0.20;;;;;;;;;;1826864;78;26305;-51
2021/12/26 03:51:39;;;;;;;0.20;0.20;;;;;;;;;;1826560;78;26749;-49
2021/12/26 03:54:07;;;;;;;0.10;0.10;;;;;;;;;;1825807;78;26951;-48
2021/12/26 03:56:34;;;;;;;0.10;0.10;;;;;;;;;;1851886;77;26260;-47
2021/12/26 03:59:02;;;;;;;0.20;0.10;;;;;;;;;;1826005;77;26247;-48
2021/12/26 04:01:29;;;;;;;0.20;0.20;;;;;;;;;;1850745;77;26711;-48
2021/12/26 04:03:57;;;;;;;0.10;0.10;;;;;;;;;;1822839;78;26398;-46
2021/12/26 04:06:25;;;;;;;0.20;0.20;;;;;;;;;;1830491;77;26274;-47
2021/12/26 04:08:52;;;;;;;0.10;0.10;;;;;;;;;;1827602;78;27171;-46
2021/12/26 04:11:20;;;;;;;0.10;0.10;;;;;;;;;;1817108;78;26305;-46
2021/12/26 04:13:47;;;;;;;0.15;0.15;;;;;;;;;;1821923;78;26304;-49
2021/12/26 04:16:15;;;;;;;0.13;0.13;;;;;;;;;;1816248;77;26674;-47
2021/12/26 04:18:42;;;;;;;0.13;0.13;;;;;;;;;;1816657;77;26320;-47
2021/12/26 04:21:10;;;;;;;0.17;0.17;;;;;;;;;;1841113;78;26678;-45
2021/12/26 04:23:37;;;;;;;0.10;0.10;;;;;;;;;;1821345;79;26339;-48
2021/12/26 04:26:04;;;;;;;0.20;0.20;;;;;;;;;;1820460;79;25247;-48
2021/12/26 04:28:32;;;;;;;0.20;0.20;;;;;;;;;;1820913;78;26213;-46
2021/12/26 04:30:59;;;;;;;0.10;0.10;;;;;;;;;;1822577;77;26182;-47
2021/12/26 04:33:27;;;;;;;0.20;0.20;;;;;;;;;;1816996;79;26246;-46
2021/12/26 04:35:54;;;;;;;0.13;0.13;;;;;;;;;;1816435;78;26234;-46
2021/12/26 04:38:21;;;;;;;0.10;0.10;;;;;;;;;;1819127;78;26587;-47
2021/12/26 04:40:51;;;;;;;0.20;0.20;;;;;;;;;;1843279;78;26268;-46
2021/12/26 04:43:25;;;;;;;0.10;0.10;;;;;;;;;;1845282;78;26299;-51
2021/12/26 04:45:48;;;;;;;0.20;0.20;;;;;;;;;;1788667;78;26748;-49
2021/12/26 04:48:16;;;;;;;0.10;0.10;;;;;;;;;;1861785;77;26315;-47
2021/12/26 04:50:43;;;;;;;0.25;0.20;;;;;;;;;;1826408;78;25246;-50
2021/12/26 04:53:11;;;;;;;0.10;0.10;;;;;;;;;;1828719;78;26332;-46
2021/12/26 04:55:39;;;;;;;0.20;0.20;;;;;;;;;;1830679;78;26197;-47
2021/12/26 04:58:06;;;;;;;0.10;0.10;;;;;;;;;;1839350;78;26696;-45
2021/12/26 05:00:33;;;;;;;0.23;0.23;;;;;;;;;;1839022;77;26690;-46
2021/12/26 05:03:08;;;;;;;0.20;0.20;;;;;;;;;;1836362;78;26278;-47
2021/12/26 05:05:31;;;;;;;0.20;0.20;;;;;;;;;;1816393;77;26294;-47
2021/12/26 05:07:59;;;;;;;0.23;0.23;;;;;;;;;;1862255;77;26381;-48
2021/12/26 05:10:28;;;;;;;0.20;0.20;;;;;;;;;;1819064;76;26877;-48
2021/12/26 05:12:57;;;;;;;0.10;0.10;;;;;;;;;;1837489;77;26775;-45
2021/12/26 05:15:24;;;;;;;0.10;0.10;;;;;;;;;;1856791;76;26248;-48
2021/12/26 05:17:53;;;;;;;0.10;0.10;;;;;;;;;;1824221;77;26220;-47
2021/12/26 05:20:20;;;;;;;0.20;0.20;;;;;;;;;;1824028;76;26257;-45
2021/12/26 05:22:49;;;;;;;0.10;0.10;;;;;;;;;;1835734;78;26238;-47
2021/12/26 05:25:17;;;;;;;0.13;0.13;;;;;;;;;;1876361;76;25620;-45
2021/12/26 05:27:44;;;;;;;0.10;0.10;;;;;;;;;;1861085;76;26329;-49
2021/12/26 05:30:13;;;;;;;0.20;0.20;;;;;;;;;;1849592;77;26943;-46
2021/12/26 05:32:41;;;;;;;0.10;0.10;;;;;;;;;;1887031;76;26226;-45
2021/12/26 05:35:09;;;;;;;0.30;0.30;;;;;;;;;;1857997;76;26322;-47
2021/12/26 05:37:37;;;;;;;0.30;0.30;;;;;;;;;;1859214;76;26638;-48
2021/12/26 05:40:05;;;;;;;0.85;0.25;;;;;;;;;;1842591;77;26274;-47
2021/12/26 05:42:33;;;;;;;0.13;0.13;;;;;;;;;;1842544;76;26752;-45
2021/12/26 05:45:00;;;;;;;0.20;0.20;;;;;;;;;;1852190;76;26361;-47
2021/12/26 05:47:28;;;;;;;0.17;0.17;;;;;;;;;;1835195;76;25701;-48
2021/12/26 05:49:56;;;;;;;0.10;0.10;;;;;;;;;;1833794;77;26309;-48
2021/12/26 05:52:23;;;;;;;0.15;0.15;;;;;;;;;;1823785;78;26294;-46
2021/12/26 05:54:51;;;;;;;0.20;0.20;;;;;;;;;;1824134;78;26272;-48
2021/12/26 05:57:18;;;;;;;0.15;0.15;;;;;;;;;;1846942;76;26354;-46
2021/12/26 05:59:46;;;;;;;0.10;0.10;;;;;;;;;;1843160;77;26272;-48
2021/12/26 06:02:13;;;;;;;0.10;0.10;;;;;;;;;;1827364;76;26306;-47
2021/12/26 06:04:41;;;;;;;0.20;0.20;;;;;;;;;;1821935;78;26219;-47
2021/12/26 06:07:08;;;;;;;0.10;0.10;;;;;;;;;;1800942;78;25283;-45
2021/12/26 06:09:36;;;;;;;0.08;0.08;;;;;;;;;;1792302;78;25288;-49
2021/12/26 06:12:04;;;;;;;0.20;0.20;;;;;;;;;;1801263;77;26808;-51
2021/12/26 06:14:31;;;;;;;0.28;0.28;;;;;;;;;;1854093;76;26711;-46
2021/12/26 06:16:58;;;;;;;0.10;0.10;;;;;;;;;;1834300;76;26361;-47
2021/12/26 06:19:25;;;;;;;0.37;0.30;;;;;;;;;;1828240;76;26384;-46
2021/12/26 06:21:53;;;;;;;0.25;0.25;;;;;;;;;;1829211;77;26336;-45
2021/12/26 06:24:20;;;;;;;0.93;0.10;;;;;;;;;;1823909;77;26272;-47
2021/12/26 06:26:47;;;;;;;2.02;0.30;;;;;;;;;;1834477;76;26252;-47
2021/12/26 06:29:15;;;;;;;0.50;0.20;;;;;;;;;;1831703;76;26294;-45
2021/12/26 06:31:42;;;;;;;4.67;0.40;;;;;;;;;;1826164;77;26223;-49
2021/12/26 06:34:09;;;;;;;1.40;0.23;;;;;;;;;;1833312;77;27365;-46
2021/12/26 06:36:37;;;;;;;0.30;0.30;;;;;;;;;;1832687;76;26348;-48
2021/12/26 06:39:05;;;;;;;0.95;0.20;;;;;;;;;;1835351;76;26222;-46
2021/12/26 06:41:33;;;;;;;1.17;0.20;;;;;;;;;;1834827;76;25734;-47
2021/12/26 06:44:00;;;;;;;0.90;0.20;;;;;;;;;;1831363;76;26702;-46
2021/12/26 06:46:28;;;;;;;0.30;0.20;;;;;;;;;;1826914;76;26376;-46
2021/12/26 06:48:56;;;;;;;0.10;0.10;;;;;;;;;;1827783;77;26311;-45
2021/12/26 06:51:23;;;;;;;0.40;0.40;;;;;;;;;;1833699;76;26314;-47
2021/12/26 06:53:50;;;;;;;0.10;0.10;;;;;;;;;;1795820;78;26440;-51
2021/12/26 06:56:18;;;;;;;0.75;0.20;;;;;;;;;;1791919;79;25691;-47
2021/12/26 06:58:45;;;;;;;1.85;0.20;;;;;;;;;;1794444;79;26667;-45
2021/12/26 07:01:12;;;;;;;0.23;0.23;;;;;;;;;;1792951;78;26793;-45
2021/12/26 07:03:39;;;;;;;0.30;0.30;;;;;;;;;;1796052;79;26340;-48
2021/12/26 07:06:07;;;;;;;0.20;0.20;;;;;;;;;;1794795;77;26679;-47
2021/12/26 07:08:34;;;;;;;2.17;0.20;;;;;;;;;;1795782;79;26771;-48
2021/12/26 07:11:01;;;;;;;0.20;0.20;;;;;;;;;;1792686;77;26242;-46
2021/12/26 07:13:29;;;;;;;0.33;0.20;;;;;;;;;;1812717;78;26328;-46
2021/12/26 07:15:56;;;;;;;0.20;0.20;;;;;;;;;;1824735;78;26760;-46
2021/12/26 07:18:23;;;;;;;0.10;0.10;;;;;;;;;;1819055;78;26298;-47
2021/12/26 07:20:51;;;;;;;0.88;0.30;;;;;;;;;;1816977;78;26306;-47
2021/12/26 07:23:18;;;;;;;0.20;0.20;;;;;;;;;;1816413;79;26469;-46
2021/12/26 07:25:45;;;;;;;10.85;0.23;;;;;;;;;;1817702;79;26268;-48
2021/12/26 07:28:15;;;;;;;0.90;0.20;;;;;;;;;;1808954;79;26288;-47
2021/12/26 07:30:43;;;;;;;0.20;0.20;;;;;;;;;;1791726;77;26278;-46
2021/12/26 07:33:10;;;;;;;2.60;0.30;;;;;;;;;;1787598;80;26733;-46
2021/12/26 07:35:37;;;;;;;0.62;0.20;;;;;;;;;;1821572;78;26342;-45
2021/12/26 07:38:05;;;;;;;0.13;0.13;;;;;;;;;;1825379;78;26772;-46
2021/12/26 07:40:32;;;;;;;0.47;0.20;;;;;;;;;;1818182;78;26315;-47
2021/12/26 07:42:59;;;;;;;0.35;0.35;;;;;;;;;;1775344;78;26299;-48
2021/12/26 07:45:27;;;;;;;2.05;0.23;;;;;;;;;;1792066;79;25316;-48
2021/12/26 07:47:54;;;;;;;5.55;0.53;;;;;;;;;;1791621;80;26361;-47
2021/12/26 07:50:21;;;;;;;0.70;0.50;;;;;;;;;;1791460;79;26260;-48
2021/12/26 07:52:52;;;;;;;5.92;0.93;;;;;;;;;;1792531;80;25705;-47
2021/12/26 07:55:18;;;;;;;5.15;1.10;;;;;;;;;;1793615;78;25483;-46
2021/12/26 07:57:48;;;;;;;2.30;1.42;;;;;;;;;;1822928;78;26841;-48
2021/12/26 08:00:15;;;;;;;12.95;1.50;;;;;;;;;;1800732;78;26298;-47
2021/12/26 08:02:43;;;;;;;2.50;1.75;;;;;;;;;;1795070;78;26366;-48
2021/12/26 08:05:10;;;;;;;1.98;1.77;;;;;;;;;;1798322;78;26837;-45
2021/12/26 08:07:37;;;;;;;6.47;2.80;;;;;;;;;;1801648;78;25334;-46
2021/12/26 08:10:05;;;;;;;4.92;2.47;;;;;;;;;;1817001;79;26292;-47
2021/12/26 08:12:33;;;;;;;3.33;2.87;;;;;;;;;;1821405;78;26691;-48
2021/12/26 08:15:02;;;;;;;2.50;2.40;;;;;;;;;;1798766;78;26286;-46
2021/12/26 08:17:31;;;;;;;6.00;2.80;;;;;;;;;;1780425;78;26875;-46
2021/12/26 08:19:59;;;;;;;3.10;2.80;;;;;;;;;;1806557;77;26248;-47
2021/12/26 08:22:26;;;;;;;3.12;2.85;;;;;;;;;;1833620;77;26326;-45
2021/12/26 08:24:53;;;;;;;3.08;2.60;;;;;;;;;;1814126;78;26460;-50
2021/12/26 08:27:21;;;;;;;2.52;2.42;;;;;;;;;;1815861;79;26258;-46
2021/12/26 08:29:48;;;;;;;5.15;2.70;;;;;;;;;;1813226;78;25672;-45
2021/12/26 08:32:17;;;;;;;2.65;2.45;;;;;;;;;;1785410;78;26825;-49
2021/12/26 08:34:46;;;;;;;2.92;2.67;;;;;;;;;;1787759;78;26286;-46
2021/12/26 08:37:14;;;;;;;2.62;2.50;;;;;;;;;;1781981;79;26298;-47
2021/12/26 08:39:42;;;;;;;2.60;2.50;;;;;;;;;;1780308;79;26396;-47
2021/12/26 08:42:11;;;;;;;3.45;2.55;;;;;;;;;;1780957;79;27852;-48
2021/12/26 08:44:38;;;;;;;3.60;2.60;;;;;;;;;;1787842;78;26345;-48
2021/12/26 08:47:06;;;;;;;2.67;2.47;;;;;;;;;;1781207;78;26401;-48
2021/12/26 08:49:33;;;;;;;4.00;2.65;;;;;;;;;;1779506;79;26733;-46
2021/12/26 08:52:01;;;;;;;2.47;2.12;;;;;;;;;;1787008;78;26410;-47
2021/12/26 08:54:29;;;;;;;5.35;2.90;;;;;;;;;;1820303;77;26319;-46
2021/12/26 08:56:59;;;;;;;2.45;2.30;;;;;;;;;;1809855;77;25583;-49
2021/12/26 08:59:30;;;;;;;5.70;2.40;;;;;;;;;;1828010;77;26568;-47
2021/12/26 09:01:55;;;;;;;2.65;2.05;;;;;;;;;;1819214;77;26493;-47
2021/12/26 09:04:22;;;;;;;3.98;2.30;;;;;;;;;;1819453;77;26237;-46
2021/12/26 09:06:49;;;;;;;2.33;2.10;;;;;;;;;;1817227;77;26233;-51
2021/12/26 09:09:17;;;;;;;2.62;2.05;;;;;;;;;;1827275;77;26357;-47
2021/12/26 09:11:44;;;;;;;3.52;2.33;;;;;;;;;;1815626;77;26741;-46
2021/12/26 09:14:11;;;;;;;2.55;2.27;;;;;;;;;;1826868;77;26777;-46
2021/12/26 09:16:39;;;;;;;3.60;2.22;;;;;;;;;;1832002;77;26777;-48
2021/12/26 09:19:06;;;;;;;1.90;1.80;;;;;;;;;;1818063;77;26291;-47
2021/12/26 09:21:35;;;;;;;3.72;2.00;;;;;;;;;;1844923;76;26326;-46
2021/12/26 09:24:04;;;;;;;2.70;1.60;;;;;;;;;;1840792;76;26287;-46
2021/12/26 09:26:31;;;;;;;3.52;1.90;;;;;;;;;;1854772;77;26291;-49
2021/12/26 09:28:59;;;;;;;4.53;1.80;;;;;;;;;;1786312;78;26914;-51
2021/12/26 09:31:26;;;;;;;1.80;1.70;;;;;;;;;;1817010;77;26301;-46
2021/12/26 09:33:54;;;;;;;2.37;1.70;;;;;;;;;;1829402;77;26360;-48
2021/12/26 09:36:21;;;;;;;1.70;1.60;;;;;;;;;;1818635;77;26425;-46
2021/12/26 09:38:49;;;;;;;2.02;1.60;;;;;;;;;;1844997;77;26335;-48
2021/12/26 09:41:16;;;;;;;1.82;1.70;;;;;;;;;;1804821;77;26280;-49
2021/12/26 09:43:43;;;;;;;1.67;1.30;;;;;;;;;;1840815;76;26313;-48
2021/12/26 09:46:11;;;;;;;2.52;1.60;;;;;;;;;;1788539;78;26283;-46
2021/12/26 09:48:38;;;;;;;1.30;1.30;;;;;;;;;;1810769;78;26289;-48
2021/12/26 09:51:05;;;;;;;1.50;1.40;;;;;;;;;;1816079;77;26222;-46
2021/12/26 09:53:38;;;;;;;1.60;1.50;;;;;;;;;;1810291;78;26888;-47
2021/12/26 09:56:06;;;;;;;1.40;1.40;;;;;;;;;;1811744;77;26352;-47
2021/12/26 09:58:35;;;;;;;2.45;1.40;;;;;;;;;;1828484;77;26269;-49
2021/12/26 10:01:03;;;;;;;1.75;1.20;;;;;;;;;;1837843;76;26271;-49
2021/12/26 10:03:36;;;;;;;1.92;1.20;;;;;;;;;;1798892;78;26757;-47
2021/12/26 10:06:13;;;;;;;1.40;1.30;;;;;;;;;;1821087;77;26257;-46
2021/12/26 10:08:53;;;;;;;2.67;1.30;;;;;;;;;;1814270;78;26297;-47
2021/12/26 10:11:22;;;;;;;1.40;1.10;;;;;;;;;;1819712;77;26329;-48
2021/12/26 10:13:50;;;;;;;2.05;1.10;;;;;;;;;;1832366;76;26311;-46
2021/12/26 10:16:19;;;;;;;2.33;1.35;;;;;;;;;;1799374;78;26305;-47
2021/12/26 10:18:48;;;;;;;1.50;1.02;;;;;;;;;;1825426;77;26290;-46
2021/12/26 10:21:25;;;;;;;1.00;1.00;;;;;;;;;;1833233;76;26289;-50
2021/12/26 10:23:53;;;;;;;0.98;0.90;;;;;;;;;;1823319;77;26274;-50
2021/12/26 10:26:22;;;;;;;0.95;0.95;;;;;;;;;;1829750;76;26283;-46
2021/12/26 10:29:06;;;;;;;1.17;1.02;;;;;;;;;;1833018;77;26288;-48
2021/12/26 10:31:34;;;;;;;0.80;0.80;;;;;;;;;;1828753;76;25340;-46
2021/12/26 10:34:01;;;;;;;0.95;0.95;;;;;;;;;;1828281;77;26384;-49
2021/12/26 10:36:28;;;;;;;1.37;0.80;;;;;;;;;;1829561;76;25892;-48
2021/12/26 10:39:12;;;;;;;0.82;0.80;;;;;;;;;;1832419;76;26282;-46
2021/12/26 10:41:41;;;;;;;0.70;0.70;;;;;;;;;;1828308;76;26369;-47
2021/12/26 10:44:10;;;;;;;0.95;0.80;;;;;;;;;;1828389;76;26356;-46
2021/12/26 10:46:39;;;;;;;0.80;0.80;;;;;;;;;;1828196;76;26333;-49
2021/12/26 10:49:26;;;;;;;0.70;0.70;;;;;;;;;;1822380;77;26269;-48
2021/12/26 10:51:53;;;;;;;1.07;0.82;;;;;;;;;;1834573;76;26334;-49
2021/12/26 10:54:25;;;;;;;0.70;0.70;;;;;;;;;;1825187;76;26703;-47
2021/12/26 10:56:58;;;;;;;1.10;0.80;;;;;;;;;;1830256;76;26339;-47
2021/12/26 10:59:26;;;;;;;0.62;0.60;;;;;;;;;;1810656;77;26718;-48
2021/12/26 11:01:54;;;;;;;0.60;0.60;;;;;;;;;;1826631;76;26329;-51
2021/12/26 11:04:22;;;;;;;1.65;0.70;;;;;;;;;;1836229;77;26330;-47
2021/12/26 11:07:02;;;;;;;0.60;0.60;;;;;;;;;;1839402;76;26294;-47
2021/12/26 11:09:30;;;;;;;0.60;0.60;;;;;;;;;;1844002;76;26347;-49
2021/12/26 11:11:59;;;;;;;0.50;0.50;;;;;;;;;;1877578;76;26269;-50
2021/12/26 11:14:27;;;;;;;0.62;0.60;;;;;;;;;;1862411;76;26775;-47
2021/12/26 11:16:54;;;;;;;2.00;0.60;;;;;;;;;;1829901;77;26270;-49
2021/12/26 11:19:41;;;;;;;0.50;0.47;;;;;;;;;;1832073;77;26338;-47
2021/12/26 11:22:09;;;;;;;0.50;0.50;;;;;;;;;;1840912;76;25692;-46
2021/12/26 11:24:37;;;;;;;0.60;0.60;;;;;;;;;;1854359;77;26286;-47
2021/12/26 11:27:05;;;;;;;1.70;0.70;;;;;;;;;;1853973;76;26271;-46
2021/12/26 11:29:34;;;;;;;1.82;0.60;;;;;;;;;;1848245;77;26359;-48
2021/12/26 11:32:02;;;;;;;2.67;0.62;;;;;;;;;;1852599;76;26342;-49
2021/12/26 11:34:31;;;;;;;0.60;0.60;;;;;;;;;;1876357;76;26301;-49
2021/12/26 11:36:58;;;;;;;1.72;0.60;;;;;;;;;;1856317;76;26271;-46
2021/12/26 11:39:26;;;;;;;0.60;0.60;;;;;;;;;;1852483;77;25639;-47
2021/12/26 11:42:07;;;;;;;0.68;0.57;;;;;;;;;;1852265;76;26271;-51
2021/12/26 11:44:42;;;;;;;2.42;0.70;;;;;;;;;;1835611;76;26775;-49
2021/12/26 11:47:11;;;;;;;0.80;0.80;;;;;;;;;;1824367;77;26715;-46
2021/12/26 11:49:40;;;;;;;1.27;1.17;;;;;;;;;;1854971;76;26680;-47
2021/12/26 11:52:09;;;;;;;1.37;1.22;;;;;;;;;;1857945;77;26368;-46
2021/12/26 11:54:41;;;;;;;2.00;1.90;;;;;;;;;;1815819;77;26802;-50
2021/12/26 11:57:12;;;;;;;2.00;1.90;;;;;;;;;;1802197;77;26828;-46
2021/12/26 11:59:59;;;;;;;3.25;2.20;;;;;;;;;;1761468;79;26352;-47
2021/12/26 12:02:43;;;;;;;2.50;2.30;;;;;;;;;;1780310;78;26284;-45
2021/12/26 12:05:12;;;;;;;2.80;2.70;;;;;;;;;;1771714;79;26670;-50
2021/12/26 12:07:44;;;;;;;3.10;2.90;;;;;;;;;;1851280;77;26819;-48
2021/12/26 12:10:29;;;;;;;3.47;3.17;;;;;;;;;;1851062;77;25725;-51
2021/12/26 12:12:57;;;;;;;3.70;3.40;;;;;;;;;;1840194;77;26852;-47
2021/12/26 12:15:42;;;;;;;3.65;3.30;;;;;;;;;;1845008;77;26275;-48
2021/12/26 12:18:11;;;;;;;4.55;3.17;;;;;;;;;;1823447;77;26338;-46
2021/12/26 12:20:39;;;;;;;5.22;3.45;;;;;;;;;;1851800;77;26212;-48
2021/12/26 12:23:08;;;;;;;4.92;3.47;;;;;;;;;;1825518;77;27269;-48
2021/12/26 12:25:38;;;;;;;3.70;3.40;;;;;;;;;;1816273;78;26375;-46
2021/12/26 12:28:17;;;;;;;3.50;3.25;;;;;;;;;;1787163;79;26317;-46
2021/12/26 12:30:43;;;;;;;4.70;3.58;;;;;;;;;;1788097;79;26392;-49
2021/12/26 12:33:15;;;;;;;5.03;3.50;;;;;;;;;;1828276;77;26331;-47
2021/12/26 12:35:50;;;;;;;3.27;3.17;;;;;;;;;;1821569;77;26279;-46
2021/12/26 12:38:24;;;;;;;3.50;3.30;;;;;;;;;;1794621;79;26335;-47
2021/12/26 12:40:52;;;;;;;3.25;3.05;;;;;;;;;;1815895;77;26277;-46
2021/12/26 12:43:20;;;;;;;3.45;3.25;;;;;;;;;;1806405;78;26573;-47
2021/12/26 12:45:57;;;;;;;4.22;3.20;;;;;;;;;;1813458;77;26266;-47
2021/12/26 12:48:26;;;;;;;3.40;3.15;;;;;;;;;;1800450;78;25702;-46
2021/12/26 12:50:54;;;;;;;4.87;3.37;;;;;;;;;;1802814;77;25631;-46
2021/12/26 12:53:39;;;;;;;7.50;3.45;;;;;;;;;;1801786;77;26844;-49
2021/12/26 12:56:08;;;;;;;4.87;3.08;;;;;;;;;;1838480;76;26808;-48
2021/12/26 12:58:36;;;;;;;4.12;3.20;;;;;;;;;;1831203;78;26295;-49
2021/12/26 13:01:05;;;;;;;5.03;3.27;;;;;;;;;;1828192;76;26562;-47
2021/12/26 13:03:36;;;;;;;5.05;2.90;;;;;;;;;;1831820;78;26247;-50
2021/12/26 13:06:08;;;;;;;5.28;3.08;;;;;;;;;;1834491;76;25871;-50
2021/12/26 13:08:36;;;;;;;5.83;2.95;;;;;;;;;;1835857;78;26240;-47
2021/12/26 13:11:06;;;;;;;3.20;2.70;;;;;;;;;;1828727;78;26737;-49
2021/12/26 13:13:35;;;;;;;3.80;2.70;;;;;;;;;;1815090;78;26657;-46
2021/12/26 13:16:03;;;;;;;4.30;2.60;;;;;;;;;;1835240;76;26264;-48
2021/12/26 13:18:32;;;;;;;3.67;2.75;;;;;;;;;;1833155;76;26729;-47
2021/12/26 13:21:01;;;;;;;3.85;2.65;;;;;;;;;;1829393;76;26722;-46
2021/12/26 13:23:29;;;;;;;4.20;2.60;;;;;;;;;;1830013;78;26267;-45
2021/12/26 13:25:59;;;;;;;5.37;2.20;;;;;;;;;;1824140;76;26904;-48
2021/12/26 13:28:27;;;;;;;3.27;2.47;;;;;;;;;;1825748;78;26295;-47
2021/12/26 13:30:56;;;;;;;5.55;2.10;;;;;;;;;;1842447;77;26294;-47
2021/12/26 13:33:25;;;;;;;6.35;2.40;;;;;;;;;;1843435;78;25286;-45
2021/12/26 13:35:53;;;;;;;1.90;1.80;;;;;;;;;;1841929;76;26331;-45
2021/12/26 13:38:21;;;;;;;3.67;2.20;;;;;;;;;;1842950;78;26272;-47
2021/12/26 13:40:50;;;;;;;4.62;1.98;;;;;;;;;;1842512;76;26641;-48
2021/12/26 13:43:31;;;;;;;5.60;2.15;;;;;;;;;;1778988;78;26406;-46
2021/12/26 13:45:59;;;;;;;4.42;2.00;;;;;;;;;;1799027;78;26355;-47
2021/12/26 13:48:28;;;;;;;3.02;1.80;;;;;;;;;;1821806;79;26323;-46
2021/12/26 13:50:55;;;;;;;3.30;1.85;;;;;;;;;;1821041;77;26734;-46
2021/12/26 13:53:23;;;;;;;2.92;1.70;;;;;;;;;;1821149;79;26307;-45
2021/12/26 13:55:54;;;;;;;1.60;1.50;;;;;;;;;;1817818;77;25257;-46
2021/12/26 13:58:21;;;;;;;3.30;1.60;;;;;;;;;;1817315;77;26346;-46
2021/12/26 14:00:49;;;;;;;1.98;1.45;;;;;;;;;;1817644;78;26687;-46
2021/12/26 14:03:17;;;;;;;1.50;1.40;;;;;;;;;;1816738;79;26731;-46
2021/12/26 14:05:44;;;;;;;2.08;1.62;;;;;;;;;;1817143;79;26268;-47
2021/12/26 14:08:16;;;;;;;2.17;1.60;;;;;;;;;;1880946;76;26662;-46
2021/12/26 14:10:43;;;;;;;2.42;1.50;;;;;;;;;;1880324;75;26308;-45
2021/12/26 14:13:11;;;;;;;5.33;1.40;;;;;;;;;;1875855;75;26415;-51
2021/12/26 14:15:48;;;;;;;2.45;1.40;;;;;;;;;;1877926;75;26221;-46
2021/12/26 14:18:16;;;;;;;1.52;1.30;;;;;;;;;;1872894;76;26211;-47
2021/12/26 14:20:48;;;;;;;4.00;1.50;;;;;;;;;;1894545;75;26655;-45
2021/12/26 14:23:20;;;;;;;1.82;1.30;;;;;;;;;;1870621;75;26193;-48
2021/12/26 14:25:49;;;;;;;2.12;1.50;;;;;;;;;;1877992;75;26324;-48
2021/12/26 14:28:18;;;;;;;4.10;1.30;;;;;;;;;;1870576;75;26260;-46
2021/12/26 14:30:46;;;;;;;2.58;1.27;;;;;;;;;;1875443;75;26288;-48
2021/12/26 14:33:14;;;;;;;1.62;1.52;;;;;;;;;;1870843;75;26386;-48
2021/12/26 14:35:45;;;;;;;2.20;1.30;;;;;;;;;;1875779;75;26329;-46
2021/12/26 14:38:13;;;;;;;1.45;1.15;;;;;;;;;;1870401;75;25604;-48
2021/12/26 14:40:51;;;;;;;1.80;1.20;;;;;;;;;;1866864;75;26342;-46
2021/12/26 14:43:18;;;;;;;2.15;1.07;;;;;;;;;;1866697;75;26251;-47
2021/12/26 14:45:47;;;;;;;3.50;1.10;;;;;;;;;;1879486;75;26703;-47
2021/12/26 14:48:31;;;;;;;1.55;1.07;;;;;;;;;;1877986;76;26278;-48
2021/12/26 14:51:00;;;;;;;1.05;0.95;;;;;;;;;;1901134;75;26262;-47
2021/12/26 14:53:27;;;;;;;2.52;0.98;;;;;;;;;;1906212;75;26254;-46
2021/12/26 14:56:01;;;;;;;2.87;1.12;;;;;;;;;;1876480;75;26240;-47